Weather reports worldwide

Advertisment
La Hoya, Spain (8205): temperature & dewpoint: 19.03.2019 07:00:00 - 25.03.2019 07:00:00 (CET)La Hoya, Spain (8205): wind speed & gusts: 19.03.2019 07:00:00 - 25.03.2019 07:00:00 (CET)La Hoya, Spain (8205): wind direction: 19.03.2019 07:00:00 - 25.03.2019 07:00:00 (CET)La Hoya, Spain (8205): visibility: 19.03.2019 07:00:00 - 25.03.2019 07:00:00 (CET)La Hoya, Spain (8205): precipitation: 19.03.2019 07:00:00 - 25.03.2019 07:00:00 (CET)
Date & Time tt [°C] td [°C] ff [km/h] ff [kn] fx [km/h] fx [kn] dd vv [km] rr [mm]
25.03.2019 07:00:00 3,2 -5,1 22 12 27 15 SE 20 -
25.03.2019 06:00:00 3,2 -5,1 20 11 27 15 ESE 20 0,0
25.03.2019 05:00:00 3,4 -4,8 21 11 29 15 ESE 20 0,0
25.03.2019 04:00:00 3,5 -5,1 18 10 26 14 ESE 20 0,0
25.03.2019 03:00:00 3,7 -4,8 20 11 25 13 ESE 20 0,0
25.03.2019 02:00:00 3,5 -4,8 14 8 23 12 ESE 20 0,0
25.03.2019 01:00:00 4,9 -5,7 21 12 39 21 ESE 20 -
25.03.2019 00:00:00 5,2 -5,4 25 14 39 21 E 20 0,0
24.03.2019 23:00:00 5,1 -5,4 26 14 41 22 ESE 20 0,0
24.03.2019 22:00:00 5,3 -5,1 30 16 40 22 E 20 0,0
24.03.2019 21:00:00 4,8 -4,8 23 12 33 18 E 20 0,0
24.03.2019 20:00:00 5,1 -4,5 21 11 32 17 E 20 0,0
24.03.2019 19:00:00 6,7 -4,2 21 11 35 19 E 20 -
24.03.2019 18:00:00 7,9 -4,8 19 10 38 20 E 20 0,0
24.03.2019 17:00:00 9,1 -3,9 21 11 37 20 ENE 20 0,0
24.03.2019 16:00:00 8,2 -4,2 23 13 38 20 ENE 20 0,0
24.03.2019 15:00:00 8,4 -4,5 23 13 38 21 E 20 0,0
24.03.2019 14:00:00 7,9 -3,9 28 15 45 24 E 20 0,0
24.03.2019 13:00:00 7,9 -3,0 29 15 48 26 E 20 -
24.03.2019 12:00:00 7,3 -3,0 35 19 54 29 E 20 0,0
24.03.2019 11:00:00 5,4 -3,0 42 23 62 33 E 20 0,0
24.03.2019 10:00:00 4,2 -2,7 42 23 58 32 E 20 0,0
24.03.2019 09:00:00 3,1 -2,7 35 19 46 25 E 20 0,0
24.03.2019 08:00:00 2,3 -3,6 23 12 39 21 E 20 0,0
24.03.2019 07:00:00 1,2 -3,9 28 15 45 25 ESE 20 -
24.03.2019 06:00:00 2,1 -3,3 31 17 48 26 E 20 0,0
24.03.2019 05:00:00 2,4 -3,0 28 15 49 27 ESE 20 0,0
24.03.2019 04:00:00 2,8 -3,9 29 15 46 25 ESE 20 0,0
24.03.2019 03:00:00 3,0 -3,3 25 14 40 22 SE 20 0,0
24.03.2019 02:00:00 3,0 -2,2 26 14 39 21 ESE 20 0,0
24.03.2019 01:00:00 2,9 -1,2 28 15 42 23 ESE 20 -
24.03.2019 00:00:00 3,4 -1,4 25 14 39 21 SE 20 0,0
23.03.2019 23:00:00 3,5 -2,0 28 15 40 21 ESE 20 0,0
23.03.2019 22:00:00 4,2 -2,5 27 14 45 24 E 20 0,0
23.03.2019 21:00:00 4,3 -2,5 21 11 33 18 E 20 0,0
23.03.2019 20:00:00 4,8 -2,7 19 10 28 15 E 20 0,0
23.03.2019 19:00:00 5,9 -3,0 17 9 31 17 E 20 -
23.03.2019 18:00:00 7,3 -3,3 12 7 27 15 ESE 20 0,0
23.03.2019 17:00:00 7,5 -2,5 19 10 33 18 E 20 0,0
23.03.2019 16:00:00 7,5 -3,6 19 10 28 15 ENE 20 0,0
23.03.2019 15:00:00 7,7 -4,5 21 12 37 20 ENE 20 0,0
23.03.2019 14:00:00 8,0 -5,7 23 12 35 19 ENE 20 0,0
23.03.2019 13:00:00 7,2 -3,9 19 10 43 23 E 20 -
23.03.2019 12:00:00 7,0 -4,2 21 11 40 21 ENE 20 0,0
23.03.2019 11:00:00 6,4 -5,4 17 9 31 17 ENE 20 0,0
23.03.2019 10:00:00 6,0 -4,2 12 7 18 10 ENE 20 0,0
23.03.2019 09:00:00 4,9 -6,4 4 2 24 13 WNW 20 0,0
23.03.2019 08:00:00 2,9 -6,7 19 11 31 17 SSE 20 0,0
23.03.2019 07:00:00 2,2 -5,7 17 9 30 16 S 20 -
23.03.2019 06:00:00 2,4 -5,1 20 11 34 18 SSE 20 0,0
23.03.2019 05:00:00 2,4 -4,5 22 12 37 20 SE 20 0,0
23.03.2019 04:00:00 2,2 -4,5 20 11 33 18 SSE 20 0,0
23.03.2019 03:00:00 2,2 -3,6 21 12 37 20 SSE 20 0,0
23.03.2019 02:00:00 2,3 -4,2 17 9 35 19 SE 20 0,0
23.03.2019 01:00:00 2,2 -4,5 18 10 29 16 SE 20 -
23.03.2019 00:00:00 2,6 -4,8 22 12 32 18 ESE 20 0,0
22.03.2019 23:00:00 2,2 -5,1 25 14 42 23 ESE 20 0,0
22.03.2019 22:00:00 3,1 -6,0 30 16 38 21 E 20 0,0
22.03.2019 21:00:00 1,7 -5,4 6 3 11 6 E 20 0,0
22.03.2019 20:00:00 2,3 -5,7 3 2 12 6 E 20 0,0
22.03.2019 19:00:00 5,0 -4,8 5 3 18 10 NNE 20 -
22.03.2019 18:00:00 6,4 -5,7 12 7 22 12 NNE 20 0,0
22.03.2019 17:00:00 7,2 -5,7 13 7 28 15 NNE 20 0,0
22.03.2019 16:00:00 7,2 -5,1 17 9 37 20 NE 20 0,0
22.03.2019 15:00:00 7,0 -5,1 18 10 34 18 ENE 20 0,0
22.03.2019 14:00:00 6,8 -6,4 19 10 35 19 ENE 20 0,0
22.03.2019 13:00:00 6,2 -6,0 20 11 46 25 ENE 20 -
22.03.2019 12:00:00 4,5 -6,0 21 11 31 17 ENE 20 0,0
22.03.2019 11:00:00 4,0 -5,7 17 9 27 15 ENE 20 0,0
22.03.2019 10:00:00 2,7 -6,0 16 9 23 12 ENE 20 0,0
22.03.2019 09:00:00 1,7 -5,7 11 6 16 9 E 20 0,0
22.03.2019 08:00:00 -1,1 -7,8 8 5 13 7 E 20 0,0
22.03.2019 07:00:00 -2,3 -7,8 7 4 27 14 S 20 -
22.03.2019 06:00:00 -1,7 -7,5 13 7 22 12 SSE 20 0,0
22.03.2019 05:00:00 -2,8 -7,1 4 2 13 7 S 20 0,0
22.03.2019 04:00:00 -1,7 -6,4 10 5 17 9 SSW 20 0,0
22.03.2019 03:00:00 -1,5 -7,5 10 5 19 10 SW 20 0,0
22.03.2019 02:00:00 -1,7 -6,4 10 5 15 8 SE 20 0,0
22.03.2019 01:00:00 -0,9 -5,7 11 6 14 8 ESE 20 -
22.03.2019 00:00:00 -1,1 -5,4 6 3 10 5 SE 20 0,0
21.03.2019 23:00:00 -0,7 -4,2 5 3 7 4 SSE 20 0,0
21.03.2019 22:00:00 -0,1 -3,6 3 1 6 3 S 20 0,0
21.03.2019 21:00:00 1,1 -3,3 5 3 12 6 W 20 0,0
21.03.2019 20:00:00 1,5 -3,6 7 4 17 9 W 20 0,0
21.03.2019 19:00:00 3,2 -4,2 11 6 22 12 WNW 20 -
21.03.2019 18:00:00 4,5 -4,8 11 6 24 13 NNW 20 0,0
21.03.2019 17:00:00 5,2 -7,5 13 7 24 13 NW 20 0,0
21.03.2019 16:00:00 5,8 -5,4 9 5 36 20 W 20 0,0
21.03.2019 15:00:00 5,3 -5,1 9 5 34 18 NW 20 0,0
21.03.2019 14:00:00 4,9 -5,7 12 7 28 15 W 20 0,0
21.03.2019 13:00:00 4,4 -6,4 9 5 27 14 WNW 20 -
21.03.2019 12:00:00 4,3 -7,8 15 8 25 14 ENE 20 0,0
21.03.2019 11:00:00 3,4 -9,4 11 6 31 17 E 20 0,0
21.03.2019 10:00:00 2,3 -7,5 18 10 25 13 E 20 0,0
21.03.2019 09:00:00 1,5 -6,7 7 4 11 6 ESE 20 0,0
21.03.2019 08:00:00 -2,4 -6,4 7 4 10 5 SSW 20 0,0
21.03.2019 07:00:00 -3,5 -7,1 6 3 10 5 S 20 -
21.03.2019 06:00:00 -3,4 -7,1 8 4 10 6 S 20 0,0
21.03.2019 05:00:00 -3,0 -7,8 7 4 10 6 S 20 0,0
21.03.2019 04:00:00 -1,9 -7,8 10 6 24 13 S 20 0,0
21.03.2019 03:00:00 -1,2 -7,1 16 9 26 14 SSE 20 0,0
21.03.2019 02:00:00 -1,2 -6,7 10 5 24 13 SSW 20 0,0
21.03.2019 01:00:00 -1,3 -5,7 22 12 32 17 ESE 20 -
21.03.2019 00:00:00 -1,1 -5,7 27 14 34 19 ESE 20 0,0
20.03.2019 23:00:00 -1,1 -6,0 26 14 40 21 E 20 0,0
20.03.2019 22:00:00 -1,1 -5,1 30 16 39 21 E 20 0,0
20.03.2019 21:00:00 -1,1 -4,8 24 13 32 18 E 20 0,0
20.03.2019 20:00:00 -0,6 -5,4 17 9 25 14 E 20 0,0
20.03.2019 19:00:00 0,9 -6,4 14 7 19 11 ENE 20 -
20.03.2019 18:00:00 2,5 -5,1 15 8 28 15 ENE 20 0,0
20.03.2019 17:00:00 2,9 -4,8 22 12 34 18 ENE 20 0,0
20.03.2019 16:00:00 3,3 -3,6 23 12 35 19 ENE 20 0,0
20.03.2019 15:00:00 2,5 -3,3 26 14 39 21 ENE 20 0,0
20.03.2019 14:00:00 2,1 -3,3 26 14 40 22 ENE 20 0,0
20.03.2019 13:00:00 1,0 -4,2 26 14 38 21 ENE 20 -
20.03.2019 12:00:00 0,5 -3,6 26 14 35 19 ENE 20 0,0
20.03.2019 11:00:00 0,3 -4,2 22 12 42 23 ENE 20 0,0
20.03.2019 10:00:00 0,6 -7,1 31 17 48 26 E 20 0,0
20.03.2019 09:00:00 -2,6 -6,7 32 17 45 24 E 20 0,0
20.03.2019 08:00:00 -3,1 -7,8 35 19 49 27 E 20 0,0
20.03.2019 07:00:00 -3,2 -9,0 34 19 49 26 E 20 -
20.03.2019 06:00:00 -3,8 -7,8 36 19 47 26 E 20 0,0
20.03.2019 05:00:00 -3,7 -6,7 33 18 49 26 E 20 0,0
20.03.2019 04:00:00 -2,8 -8,2 34 19 49 26 E 20 0,0
20.03.2019 03:00:00 -3,0 -7,1 35 19 48 26 E 20 0,0
20.03.2019 02:00:00 -2,5 -7,1 29 16 46 25 E 20 0,0
20.03.2019 01:00:00 -1,2 -7,5 34 19 50 27 E 20 -
20.03.2019 00:00:00 -1,0 -4,8 36 19 59 32 E 20 0,0
19.03.2019 23:00:00 -1,0 -6,7 40 22 62 33 E 20 0,0
19.03.2019 22:00:00 -1,5 -2,7 39 21 50 27 E 20 0,0
19.03.2019 21:00:00 -1,4 -2,7 38 21 51 27 E 20 0,0
19.03.2019 20:00:00 -1,0 -4,2 34 18 50 27 E 20 0,0
19.03.2019 19:00:00 0,3 -4,5 34 19 51 28 ENE 20 -
19.03.2019 18:00:00 2,0 -3,6 39 21 53 29 ENE 20 0,0
19.03.2019 17:00:00 2,2 -3,3 39 21 59 32 ENE 20 0,0
19.03.2019 16:00:00 2,5 -3,3 48 26 60 32 ENE 20 0,0
19.03.2019 15:00:00 2,8 -3,3 40 22 51 28 ENE 20 0,0
19.03.2019 14:00:00 2,7 -3,0 40 21 53 29 ENE 20 0,0
19.03.2019 13:00:00 2,0 -3,3 38 20 50 27 ENE 20 -
19.03.2019 12:00:00 1,6 -3,3 35 19 47 26 ENE 20 0,0
19.03.2019 11:00:00 1,0 -4,2 35 19 47 25 ENE 20 0,0
19.03.2019 10:00:00 0,3 -5,4 29 16 41 22 E 20 0,0
19.03.2019 09:00:00 -1,1 -5,4 26 14 38 21 E 20 0,0
19.03.2019 08:00:00 -2,4 -5,1 16 9 36 19 E 20 0,0
19.03.2019 07:00:00 -2,1 -5,1 18 10 31 17 ESE 20 -

tt = temperature
td = dewpoint
ff = wind speed
fx = gusts
dd = wind direction
vv = visibility
rr = precipitation

Next stations